sensor_id;sensor_type;location;lat;lon;timestamp;pressure;altitude;pressure_sealevel;temperature;humidity
25759;BME280;13604;52.496;13.456;2022-10-18T00:02:01;102095.50;;;14.85;100.00
25759;BME280;13604;52.496;13.456;2022-10-18T00:04:27;102093.66;;;14.87;100.00
25759;BME280;13604;52.496;13.456;2022-10-18T00:06:52;102095.97;;;14.92;100.00
25759;BME280;13604;52.496;13.456;2022-10-18T00:09:17;102092.50;;;14.91;100.00
25759;BME280;13604;52.496;13.456;2022-10-18T00:11:43;102101.06;;;14.95;100.00
25759;BME280;13604;52.496;13.456;2022-10-18T00:14:08;102092.44;;;14.93;100.00
25759;BME280;13604;52.496;13.456;2022-10-18T00:16:34;102106.91;;;15.00;100.00
25759;BME280;13604;52.496;13.456;2022-10-18T00:18:59;102099.88;;;15.01;100.00
25759;BME280;13604;52.496;13.456;2022-10-18T00:21:24;102099.78;;;15.02;100.00
25759;BME280;13604;52.496;13.456;2022-10-18T00:23:51;102104.19;;;15.02;100.00
25759;BME280;13604;52.496;13.456;2022-10-18T00:26:21;102104.28;;;15.00;100.00
25759;BME280;13604;52.496;13.456;2022-10-18T00:28:50;102121.72;;;15.01;100.00
25759;BME280;13604;52.496;13.456;2022-10-18T00:31:25;102115.78;;;14.98;100.00
25759;BME280;13604;52.496;13.456;2022-10-18T00:33:52;102120.94;;;14.99;100.00
25759;BME280;13604;52.496;13.456;2022-10-18T00:36:18;102120.03;;;15.00;100.00
25759;BME280;13604;52.496;13.456;2022-10-18T00:38:44;102120.09;;;14.99;100.00
25759;BME280;13604;52.496;13.456;2022-10-18T00:41:17;102124.50;;;14.98;100.00
25759;BME280;13604;52.496;13.456;2022-10-18T00:43:51;102122.91;;;14.96;100.00
25759;BME280;13604;52.496;13.456;2022-10-18T00:46:17;102131.63;;;14.96;100.00
25759;BME280;13604;52.496;13.456;2022-10-18T00:48:42;102118.84;;;14.90;100.00
25759;BME280;13604;52.496;13.456;2022-10-18T00:51:07;102111.84;;;14.90;100.00
25759;BME280;13604;52.496;13.456;2022-10-18T00:53:33;102124.94;;;14.90;100.00
25759;BME280;13604;52.496;13.456;2022-10-18T00:55:58;102119.09;;;14.85;100.00
25759;BME280;13604;52.496;13.456;2022-10-18T00:58:23;102127.47;;;14.92;100.00
25759;BME280;13604;52.496;13.456;2022-10-18T01:00:49;102128.31;;;14.92;100.00
25759;BME280;13604;52.496;13.456;2022-10-18T01:03:14;102126.69;;;15.06;100.00
25759;BME280;13604;52.496;13.456;2022-10-18T01:05:43;102118.78;;;15.36;100.00
25759;BME280;13604;52.496;13.456;2022-10-18T01:08:23;102124.06;;;15.50;100.00
25759;BME280;13604;52.496;13.456;2022-10-18T01:11:14;102122.56;;;15.90;100.00
25759;BME280;13604;52.496;13.456;2022-10-18T01:13:55;102125.63;;;16.11;100.00
25759;BME280;13604;52.496;13.456;2022-10-18T01:16:32;102124.72;;;16.38;100.00
25759;BME280;13604;52.496;13.456;2022-10-18T01:19:12;102134.28;;;16.54;100.00
25759;BME280;13604;52.496;13.456;2022-10-18T01:21:56;102126.91;;;16.59;100.00
25759;BME280;13604;52.496;13.456;2022-10-18T01:27:32;102128.50;;;16.76;100.00
25759;BME280;13604;52.496;13.456;2022-10-18T01:36:12;102119.16;;;16.84;100.00
25759;BME280;13604;52.496;13.456;2022-10-18T01:38:40;102096.84;;;16.77;100.00
25759;BME280;13604;52.496;13.456;2022-10-18T01:41:08;102106.66;;;16.88;100.00
25759;BME280;13604;52.496;13.456;2022-10-18T01:43:36;102108.63;;;16.84;100.00
25759;BME280;13604;52.496;13.456;2022-10-18T01:46:03;102114.00;;;16.83;100.00
25759;BME280;13604;52.496;13.456;2022-10-18T01:48:29;102122.84;;;16.82;100.00
25759;BME280;13604;52.496;13.456;2022-10-18T01:50:54;102120.44;;;16.79;100.00
25759;BME280;13604;52.496;13.456;2022-10-18T01:53:33;102134.19;;;16.82;100.00
25759;BME280;13604;52.496;13.456;2022-10-18T01:56:14;102121.38;;;16.78;100.00
25759;BME280;13604;52.496;13.456;2022-10-18T01:58:49;102129.97;;;16.80;100.00
25759;BME280;13604;52.496;13.456;2022-10-18T02:01:40;102123.50;;;16.85;100.00
25759;BME280;13604;52.496;13.456;2022-10-18T02:04:32;102111.47;;;16.81;100.00
25759;BME280;13604;52.496;13.456;2022-10-18T02:09:53;102118.41;;;16.82;100.00
25759;BME280;13604;52.496;13.456;2022-10-18T02:12:22;102108.94;;;16.80;100.00
25759;BME280;13604;52.496;13.456;2022-10-18T02:14:49;102113.25;;;16.81;100.00
25759;BME280;13604;52.496;13.456;2022-10-18T02:17:15;102115.25;;;16.77;100.00
25759;BME280;13604;52.496;13.456;2022-10-18T02:19:48;102107.47;;;16.76;100.00
25759;BME280;13604;52.496;13.456;2022-10-18T02:22:15;102116.59;;;16.70;100.00
25759;BME280;13604;52.496;13.456;2022-10-18T02:24:44;102120.16;;;16.69;100.00
25759;BME280;13604;52.496;13.456;2022-10-18T02:27:11;102126.16;;;16.71;100.00
25759;BME280;13604;52.496;13.456;2022-10-18T02:29:37;102116.59;;;16.70;100.00
25759;BME280;13604;52.496;13.456;2022-10-18T02:32:10;102124.56;;;16.68;100.00
25759;BME280;13604;52.496;13.456;2022-10-18T02:34:42;102121.41;;;16.63;100.00
25759;BME280;13604;52.496;13.456;2022-10-18T02:37:09;102128.47;;;16.63;100.00
25759;BME280;13604;52.496;13.456;2022-10-18T02:39:38;102131.75;;;16.66;100.00
25759;BME280;13604;52.496;13.456;2022-10-18T02:42:09;102130.59;;;16.70;100.00
25759;BME280;13604;52.496;13.456;2022-10-18T02:44:35;102138.38;;;16.72;100.00
25759;BME280;13604;52.496;13.456;2022-10-18T02:47:01;102143.81;;;16.69;100.00
25759;BME280;13604;52.496;13.456;2022-10-18T02:49:26;102134.38;;;16.66;100.00
25759;BME280;13604;52.496;13.456;2022-10-18T02:51:51;102123.44;;;16.58;100.00
25759;BME280;13604;52.496;13.456;2022-10-18T02:54:17;102142.34;;;16.65;100.00
25759;BME280;13604;52.496;13.456;2022-10-18T02:56:42;102136.25;;;16.64;100.00
25759;BME280;13604;52.496;13.456;2022-10-18T02:59:07;102139.22;;;16.58;100.00
25759;BME280;13604;52.496;13.456;2022-10-18T03:01:33;102138.28;;;16.59;100.00
25759;BME280;13604;52.496;13.456;2022-10-18T03:04:00;102143.44;;;16.61;100.00
25759;BME280;13604;52.496;13.456;2022-10-18T03:06:26;102141.13;;;16.56;100.00
25759;BME280;13604;52.496;13.456;2022-10-18T03:08:51;102138.59;;;16.55;100.00
25759;BME280;13604;52.496;13.456;2022-10-18T03:11:16;102143.84;;;16.55;100.00
25759;BME280;13604;52.496;13.456;2022-10-18T03:13:42;102141.69;;;16.47;100.00
25759;BME280;13604;52.496;13.456;2022-10-18T03:16:07;102142.16;;;16.54;100.00
25759;BME280;13604;52.496;13.456;2022-10-18T03:18:32;102155.69;;;16.48;100.00
25759;BME280;13604;52.496;13.456;2022-10-18T03:20:58;102172.63;;;16.44;100.00
25759;BME280;13604;52.496;13.456;2022-10-18T03:23:23;102176.81;;;16.46;100.00
25759;BME280;13604;52.496;13.456;2022-10-18T03:25:48;102181.53;;;16.41;100.00
25759;BME280;13604;52.496;13.456;2022-10-18T03:28:14;102188.41;;;16.44;100.00
25759;BME280;13604;52.496;13.456;2022-10-18T03:30:39;102176.94;;;16.30;100.00
25759;BME280;13604;52.496;13.456;2022-10-18T03:33:05;102161.44;;;16.26;100.00
25759;BME280;13604;52.496;13.456;2022-10-18T03:35:30;102160.16;;;16.19;100.00
25759;BME280;13604;52.496;13.456;2022-10-18T03:37:56;102151.34;;;16.20;100.00
25759;BME280;13604;52.496;13.456;2022-10-18T03:40:21;102151.25;;;16.21;100.00
25759;BME280;13604;52.496;13.456;2022-10-18T03:42:46;102144.19;;;16.22;100.00
25759;BME280;13604;52.496;13.456;2022-10-18T03:45:11;102150.50;;;16.19;100.00
25759;BME280;13604;52.496;13.456;2022-10-18T03:47:37;102142.03;;;16.14;100.00
25759;BME280;13604;52.496;13.456;2022-10-18T03:50:02;102144.13;;;16.09;100.00
25759;BME280;13604;52.496;13.456;2022-10-18T03:52:28;102153.59;;;16.12;100.00
25759;BME280;13604;52.496;13.456;2022-10-18T03:54:53;102165.59;;;16.16;100.00
25759;BME280;13604;52.496;13.456;2022-10-18T03:57:18;102166.06;;;16.08;100.00
25759;BME280;13604;52.496;13.456;2022-10-18T03:59:44;102156.91;;;16.01;100.00
25759;BME280;13604;52.496;13.456;2022-10-18T04:02:09;102165.72;;;16.00;100.00
25759;BME280;13604;52.496;13.456;2022-10-18T04:04:34;102155.47;;;15.95;100.00
25759;BME280;13604;52.496;13.456;2022-10-18T04:06:59;102152.75;;;15.97;100.00
25759;BME280;13604;52.496;13.456;2022-10-18T04:09:25;102159.69;;;15.98;100.00
25759;BME280;13604;52.496;13.456;2022-10-18T04:11:50;102156.03;;;15.86;100.00
25759;BME280;13604;52.496;13.456;2022-10-18T04:14:15;102166.72;;;15.83;100.00
25759;BME280;13604;52.496;13.456;2022-10-18T04:16:41;102167.75;;;15.81;100.00
25759;BME280;13604;52.496;13.456;2022-10-18T04:19:06;102157.53;;;15.76;100.00
25759;BME280;13604;52.496;13.456;2022-10-18T04:21:31;102155.66;;;15.78;100.00
25759;BME280;13604;52.496;13.456;2022-10-18T04:23:57;102159.56;;;15.71;100.00
25759;BME280;13604;52.496;13.456;2022-10-18T04:26:22;102157.78;;;15.72;100.00
25759;BME280;13604;52.496;13.456;2022-10-18T04:28:47;102149.06;;;15.71;100.00
25759;BME280;13604;52.496;13.456;2022-10-18T04:31:13;102147.69;;;15.65;100.00
25759;BME280;13604;52.496;13.456;2022-10-18T04:33:38;102164.28;;;15.66;100.00
25759;BME280;13604;52.496;13.456;2022-10-18T04:36:03;102165.56;;;15.59;100.00
25759;BME280;13604;52.496;13.456;2022-10-18T04:38:29;102169.88;;;15.60;100.00
25759;BME280;13604;52.496;13.456;2022-10-18T04:40:54;102171.00;;;15.56;100.00
25759;BME280;13604;52.496;13.456;2022-10-18T04:43:20;102164.13;;;15.53;100.00
25759;BME280;13604;52.496;13.456;2022-10-18T04:45:45;102167.75;;;15.51;100.00
25759;BME280;13604;52.496;13.456;2022-10-18T04:48:13;102171.41;;;15.48;100.00
25759;BME280;13604;52.496;13.456;2022-10-18T04:50:39;102164.47;;;15.47;100.00
25759;BME280;13604;52.496;13.456;2022-10-18T04:53:04;102155.09;;;15.43;100.00
25759;BME280;13604;52.496;13.456;2022-10-18T04:55:29;102149.94;;;15.42;100.00
25759;BME280;13604;52.496;13.456;2022-10-18T04:57:55;102154.09;;;15.46;100.00
25759;BME280;13604;52.496;13.456;2022-10-18T05:00:20;102150.88;;;15.41;100.00
25759;BME280;13604;52.496;13.456;2022-10-18T05:02:45;102157.22;;;15.37;100.00
25759;BME280;13604;52.496;13.456;2022-10-18T05:05:11;102164.16;;;15.38;100.00
25759;BME280;13604;52.496;13.456;2022-10-18T05:07:36;102160.91;;;15.34;100.00
25759;BME280;13604;52.496;13.456;2022-10-18T05:10:02;102154.97;;;15.30;100.00
25759;BME280;13604;52.496;13.456;2022-10-18T05:12:27;102137.22;;;15.20;100.00
25759;BME280;13604;52.496;13.456;2022-10-18T05:14:53;102150.06;;;15.24;100.00
25759;BME280;13604;52.496;13.456;2022-10-18T05:17:18;102144.72;;;15.26;100.00
25759;BME280;13604;52.496;13.456;2022-10-18T05:19:43;102156.16;;;15.25;100.00
25759;BME280;13604;52.496;13.456;2022-10-18T05:22:09;102146.03;;;15.19;100.00
25759;BME280;13604;52.496;13.456;2022-10-18T05:24:34;102148.47;;;15.22;100.00
25759;BME280;13604;52.496;13.456;2022-10-18T05:26:59;102146.88;;;15.19;100.00
25759;BME280;13604;52.496;13.456;2022-10-18T05:29:25;102145.25;;;15.17;100.00
25759;BME280;13604;52.496;13.456;2022-10-18T05:31:50;102146.88;;;15.19;100.00
25759;BME280;13604;52.496;13.456;2022-10-18T05:34:16;102158.22;;;15.20;100.00
25759;BME280;13604;52.496;13.456;2022-10-18T05:36:42;102152.47;;;15.13;100.00
25759;BME280;13604;52.496;13.456;2022-10-18T05:39:07;102144.34;;;15.18;100.00
25759;BME280;13604;52.496;13.456;2022-10-18T05:41:32;102158.22;;;15.20;100.00
25759;BME280;13604;52.496;13.456;2022-10-18T05:43:57;102141.03;;;15.14;100.00
25759;BME280;13604;52.496;13.456;2022-10-18T05:46:23;102145.63;;;15.11;100.00
25759;BME280;13604;52.496;13.456;2022-10-18T05:48:49;102149.53;;;15.04;100.00
25759;BME280;13604;52.496;13.456;2022-10-18T05:51:15;102148.44;;;15.08;100.00
25759;BME280;13604;52.496;13.456;2022-10-18T05:53:41;102153.09;;;15.03;100.00
25759;BME280;13604;52.496;13.456;2022-10-18T05:56:06;102153.38;;;14.98;100.00
25759;BME280;13604;52.496;13.456;2022-10-18T05:58:32;102158.53;;;15.00;100.00
25759;BME280;13604;52.496;13.456;2022-10-18T06:01:01;102160.38;;;14.98;100.00
25759;BME280;13604;52.496;13.456;2022-10-18T06:03:26;102162.16;;;14.97;100.00
25759;BME280;13604;52.496;13.456;2022-10-18T06:05:52;102165.63;;;14.98;100.00
25759;BME280;13604;52.496;13.456;2022-10-18T06:08:18;102161.41;;;14.95;100.00
25759;BME280;13604;52.496;13.456;2022-10-18T06:10:43;102158.78;;;14.95;100.00
25759;BME280;13604;52.496;13.456;2022-10-18T06:13:09;102161.41;;;14.95;100.00
25759;BME280;13604;52.496;13.456;2022-10-18T06:15:34;102152.75;;;14.93;100.00
25759;BME280;13604;52.496;13.456;2022-10-18T06:17:59;102138.72;;;14.94;100.00
25759;BME280;13604;52.496;13.456;2022-10-18T06:20:25;102141.25;;;14.96;100.00
25759;BME280;13604;52.496;13.456;2022-10-18T06:22:53;102141.63;;;14.89;100.00
25759;BME280;13604;52.496;13.456;2022-10-18T06:25:18;102146.09;;;14.87;100.00
25759;BME280;13604;52.496;13.456;2022-10-18T06:27:43;102156.50;;;14.89;100.00
25759;BME280;13604;52.496;13.456;2022-10-18T06:30:09;102147.88;;;14.87;100.00
25759;BME280;13604;52.496;13.456;2022-10-18T06:32:34;102138.31;;;14.86;100.00
25759;BME280;13604;52.496;13.456;2022-10-18T06:35:00;102132.06;;;14.88;100.00
25759;BME280;13604;52.496;13.456;2022-10-18T06:37:28;102143.19;;;14.92;100.00
25759;BME280;13604;52.496;13.456;2022-10-18T06:39:54;102148.38;;;14.93;100.00
25759;BME280;13604;52.496;13.456;2022-10-18T06:42:19;102129.53;;;14.87;100.00
25759;BME280;13604;52.496;13.456;2022-10-18T06:44:44;102138.25;;;14.87;100.00
25759;BME280;13604;52.496;13.456;2022-10-18T06:47:10;102145.50;;;14.82;100.00
25759;BME280;13604;52.496;13.456;2022-10-18T06:49:35;102152.97;;;14.90;100.00
25759;BME280;13604;52.496;13.456;2022-10-18T06:52:00;102156.16;;;14.95;100.00
25759;BME280;13604;52.496;13.456;2022-10-18T06:54:26;102160.22;;;15.01;100.00
25759;BME280;13604;52.496;13.456;2022-10-18T06:56:55;102165.50;;;15.15;100.00
25759;BME280;13604;52.496;13.456;2022-10-18T06:59:20;102158.22;;;15.20;100.00
25759;BME280;13604;52.496;13.456;2022-10-18T07:01:45;102148.56;;;15.20;100.00
25759;BME280;13604;52.496;13.456;2022-10-18T07:04:11;102160.75;;;15.21;100.00
25759;BME280;13604;52.496;13.456;2022-10-18T07:06:36;102155.69;;;15.18;100.00
25759;BME280;13604;52.496;13.456;2022-10-18T07:09:02;102146.03;;;15.19;100.00
25759;BME280;13604;52.496;13.456;2022-10-18T07:11:27;102151.44;;;15.16;100.00
25759;BME280;13604;52.496;13.456;2022-10-18T07:13:54;102171.44;;;15.18;100.00
25759;BME280;13604;52.496;13.456;2022-10-18T07:16:25;102175.75;;;15.19;100.00
25759;BME280;13604;52.496;13.456;2022-10-18T07:18:50;102173.78;;;15.23;100.00
25759;BME280;13604;52.496;13.456;2022-10-18T07:21:18;102187.41;;;15.29;100.00
25759;BME280;13604;52.496;13.456;2022-10-18T07:23:44;102191.88;;;15.27;100.00
25759;BME280;13604;52.496;13.456;2022-10-18T07:26:15;102200.53;;;15.29;100.00
25759;BME280;13604;52.496;13.456;2022-10-18T07:28:42;102201.75;;;15.38;100.00
25759;BME280;13604;52.496;13.456;2022-10-18T07:31:09;102201.50;;;15.43;100.00
25759;BME280;13604;52.496;13.456;2022-10-18T07:33:35;102203.97;;;15.46;100.00
25759;BME280;13604;52.496;13.456;2022-10-18T07:36:06;102225.44;;;15.52;100.00
25759;BME280;13604;52.496;13.456;2022-10-18T07:38:32;102211.38;;;15.53;100.00
25759;BME280;13604;52.496;13.456;2022-10-18T07:40:59;102216.03;;;15.64;100.00
25759;BME280;13604;52.496;13.456;2022-10-18T07:43:24;102210.69;;;15.65;100.00
25759;BME280;13604;52.496;13.456;2022-10-18T07:45:51;102228.53;;;15.75;100.00
25759;BME280;13604;52.496;13.456;2022-10-18T07:48:17;102222.81;;;15.82;100.00
25759;BME280;13604;52.496;13.456;2022-10-18T07:50:42;102229.22;;;15.78;100.00
25759;BME280;13604;52.496;13.456;2022-10-18T07:53:07;102223.59;;;15.84;100.00
25759;BME280;13604;52.496;13.456;2022-10-18T07:55:32;102221.72;;;15.86;100.00
25759;BME280;13604;52.496;13.456;2022-10-18T07:57:59;102214.38;;;15.91;100.00
25759;BME280;13604;52.496;13.456;2022-10-18T08:00:24;102219.00;;;16.02;100.00
25759;BME280;13604;52.496;13.456;2022-10-18T08:02:55;102222.59;;;16.01;100.00
25759;BME280;13604;52.496;13.456;2022-10-18T08:05:20;102208.59;;;16.00;100.00
25759;BME280;13604;52.496;13.456;2022-10-18T08:07:45;102212.06;;;16.01;100.00
25759;BME280;13604;52.496;13.456;2022-10-18T08:10:11;102212.50;;;15.93;100.00
25759;BME280;13604;52.496;13.456;2022-10-18T08:12:36;102215.22;;;15.92;100.00
25759;BME280;13604;52.496;13.456;2022-10-18T08:15:01;102202.09;;;15.78;100.00
25759;BME280;13604;52.496;13.456;2022-10-18T08:17:27;102215.03;;;15.81;100.00
25759;BME280;13604;52.496;13.456;2022-10-18T08:19:52;102207.06;;;15.68;100.00
25759;BME280;13604;52.496;13.456;2022-10-18T08:22:18;102205.88;;;15.58;100.00
25759;BME280;13604;52.496;13.456;2022-10-18T08:24:43;102203.00;;;15.47;100.00
25759;BME280;13604;52.496;13.456;2022-10-18T08:27:08;102198.81;;;15.44;100.00
25759;BME280;13604;52.496;13.456;2022-10-18T08:29:34;102200.28;;;15.34;100.00
25759;BME280;13604;52.496;13.456;2022-10-18T08:31:59;102194.69;;;15.24;100.00
25759;BME280;13604;52.496;13.456;2022-10-18T08:34:24;102194.97;;;15.20;100.00
25759;BME280;13604;52.496;13.456;2022-10-18T08:36:49;102199.28;;;15.21;100.00
25759;BME280;13604;52.496;13.456;2022-10-18T08:39:15;102205.78;;;15.14;100.00
25759;BME280;13604;52.496;13.456;2022-10-18T08:42:00;102197.00;;;15.15;100.00
25759;BME280;13604;52.496;13.456;2022-10-18T08:44:30;102204.78;;;15.16;100.00
25759;BME280;13604;52.496;13.456;2022-10-18T08:47:05;102209.19;;;15.16;100.00
25759;BME280;13604;52.496;13.456;2022-10-18T08:49:45;102206.75;;;15.13;100.00
25759;BME280;13604;52.496;13.456;2022-10-18T08:52:18;102202.59;;;15.09;100.00
25759;BME280;13604;52.496;13.456;2022-10-18T08:57:49;102198.88;;;14.97;100.00
25759;BME280;13604;52.496;13.456;2022-10-18T09:00:20;102190.41;;;14.92;100.00
25759;BME280;13604;52.496;13.456;2022-10-18T09:05:38;102208.44;;;14.98;100.00
25759;BME280;13604;52.496;13.456;2022-10-18T09:08:31;102198.28;;;14.92;100.00
25759;BME280;13604;52.496;13.456;2022-10-18T09:11:13;102202.69;;;14.91;100.00
25759;BME280;13604;52.496;13.456;2022-10-18T09:13:59;102210.06;;;14.85;100.00
25759;BME280;13604;52.496;13.456;2022-10-18T09:16:29;102210.47;;;14.93;100.00
25759;BME280;13604;52.496;13.456;2022-10-18T09:19:13;102212.25;;;14.92;100.00
25759;BME280;13604;52.496;13.456;2022-10-18T09:21:51;102220.72;;;14.98;100.00
25759;BME280;13604;52.496;13.456;2022-10-18T09:24:25;102215.47;;;14.98;100.00
25759;BME280;13604;52.496;13.456;2022-10-18T09:26:56;102211.84;;;15.00;100.00
25759;BME280;13604;52.496;13.456;2022-10-18T09:32:22;102209.38;;;14.97;100.00
25759;BME280;13604;52.496;13.456;2022-10-18T09:34:55;102209.31;;;14.99;100.00
25759;BME280;13604;52.496;13.456;2022-10-18T09:37:23;102202.59;;;14.93;100.00
25759;BME280;13604;52.496;13.456;2022-10-18T09:39:55;102210.91;;;14.85;100.00
25759;BME280;13604;52.496;13.456;2022-10-18T09:42:38;102204.97;;;14.82;100.00
25759;BME280;13604;52.496;13.456;2022-10-18T09:45:32;102209.72;;;14.75;100.00
25759;BME280;13604;52.496;13.456;2022-10-18T09:48:18;102217.44;;;14.78;100.00
25759;BME280;13604;52.496;13.456;2022-10-18T09:50:51;102218.78;;;14.85;100.00
25759;BME280;13604;52.496;13.456;2022-10-18T09:53:29;102213.38;;;14.88;100.00
25759;BME280;13604;52.496;13.456;2022-10-18T09:56:03;102209.13;;;14.86;100.00
25759;BME280;13604;52.496;13.456;2022-10-18T09:58:40;102198.72;;;14.84;100.00
25759;BME280;13604;52.496;13.456;2022-10-18T10:01:07;102204.66;;;14.88;100.00
25759;BME280;13604;52.496;13.456;2022-10-18T10:03:33;102206.91;;;14.94;100.00
25759;BME280;13604;52.496;13.456;2022-10-18T10:08:36;102220.56;;;15.01;100.00
25759;BME280;13604;52.496;13.456;2022-10-18T10:11:31;102216.03;;;15.03;100.00
25759;BME280;13604;52.496;13.456;2022-10-18T10:14:11;102216.91;;;15.03;100.00
25759;BME280;13604;52.496;13.456;2022-10-18T10:19:36;102211.56;;;15.05;100.00
25759;BME280;13604;52.496;13.456;2022-10-18T10:22:09;102207.34;;;15.02;100.00
25759;BME280;13604;52.496;13.456;2022-10-18T10:24:46;102212.41;;;15.05;100.00
25759;BME280;13604;52.496;13.456;2022-10-18T10:27:19;102204.97;;;14.98;100.00
25759;BME280;13604;52.496;13.456;2022-10-18T10:32:12;102205.84;;;14.98;100.00
25759;BME280;13604;52.496;13.456;2022-10-18T10:34:37;102210.22;;;14.98;100.00
25759;BME280;13604;52.496;13.456;2022-10-18T10:37:22;102201.88;;;14.91;100.00
25759;BME280;13604;52.496;13.456;2022-10-18T10:42:32;102203.66;;;14.90;100.00
25759;BME280;13604;52.496;13.456;2022-10-18T10:45:01;102190.69;;;14.87;100.00
25759;BME280;13604;52.496;13.456;2022-10-18T10:47:35;102194.66;;;14.94;100.00
25759;BME280;13604;52.496;13.456;2022-10-18T10:50:07;102179.44;;;15.01;100.00
25759;BME280;13604;52.496;13.456;2022-10-18T10:52:33;102176.22;;;14.96;100.00
25759;BME280;13604;52.496;13.456;2022-10-18T10:55:00;102177.91;;;14.97;100.00
25759;BME280;13604;52.496;13.456;2022-10-18T10:57:27;102181.28;;;14.99;100.00
25759;BME280;13604;52.496;13.456;2022-10-18T10:59:55;102166.31;;;15.01;100.00
25759;BME280;13604;52.496;13.456;2022-10-18T11:02:32;102159.09;;;15.05;100.00
25759;BME280;13604;52.496;13.456;2022-10-18T11:05:21;102150.81;;;15.12;100.00
25759;BME280;13604;52.496;13.456;2022-10-18T11:07:47;102159.41;;;15.14;100.00
25759;BME280;13604;52.496;13.456;2022-10-18T11:10:19;102165.94;;;15.23;100.00
25759;BME280;13604;52.496;13.456;2022-10-18T11:12:48;102150.25;;;15.21;100.00
25759;BME280;13604;52.496;13.456;2022-10-18T11:15:34;102154.75;;;15.19;100.00
25759;BME280;13604;52.496;13.456;2022-10-18T11:20:45;102164.03;;;15.25;100.00
25759;BME280;13604;52.496;13.456;2022-10-18T11:23:14;102162.44;;;15.22;100.00
25759;BME280;13604;52.496;13.456;2022-10-18T11:28:42;102171.47;;;15.33;100.00
25759;BME280;13604;52.496;13.456;2022-10-18T11:31:40;102163.19;;;15.24;100.00
25759;BME280;13604;52.496;13.456;2022-10-18T11:34:45;102160.38;;;15.27;100.00
25759;BME280;13604;52.496;13.456;2022-10-18T11:37:35;102166.63;;;15.41;100.00
25759;BME280;13604;52.496;13.456;2022-10-18T11:43:16;102162.97;;;15.43;100.00
25759;BME280;13604;52.496;13.456;2022-10-18T11:46:06;102164.94;;;15.40;100.00
25759;BME280;13604;52.496;13.456;2022-10-18T11:54:51;102151.50;;;15.30;100.00
25759;BME280;13604;52.496;13.456;2022-10-18T11:57:34;102152.19;;;15.34;100.00
25759;BME280;13604;52.496;13.456;2022-10-18T12:05:37;102130.03;;;15.23;100.00
25759;BME280;13604;52.496;13.456;2022-10-18T12:08:14;102121.41;;;15.21;100.00
25759;BME280;13604;52.496;13.456;2022-10-18T12:10:42;102136.00;;;15.25;100.00
25759;BME280;13604;52.496;13.456;2022-10-18T12:13:16;102138.84;;;15.37;100.00
25759;BME280;13604;52.496;13.456;2022-10-18T12:15:42;102145.63;;;15.41;100.00
25759;BME280;13604;52.496;13.456;2022-10-18T12:18:19;102143.13;;;15.53;100.00
25759;BME280;13604;52.496;13.456;2022-10-18T12:20:52;102140.81;;;15.63;100.00
25759;BME280;13604;52.496;13.456;2022-10-18T12:23:29;102141.00;;;15.74;100.00
25759;BME280;13604;52.496;13.456;2022-10-18T12:26:01;102140.00;;;15.77;100.00
25759;BME280;13604;52.496;13.456;2022-10-18T12:28:48;102144.78;;;15.84;100.00
25759;BME280;13604;52.496;13.456;2022-10-18T12:33:53;102130.25;;;15.79;100.00
25759;BME280;13604;52.496;13.456;2022-10-18T12:41:20;102126.13;;;15.89;100.00
25759;BME280;13604;52.496;13.456;2022-10-18T12:44:02;102123.66;;;16.00;100.00
25759;BME280;13604;52.496;13.456;2022-10-18T12:46:47;102113.16;;;16.00;100.00
25759;BME280;13604;52.496;13.456;2022-10-18T12:49:17;102117.25;;;16.04;100.00
25759;BME280;13604;52.496;13.456;2022-10-18T12:51:58;102126.56;;;15.95;100.00
25759;BME280;13604;52.496;13.456;2022-10-18T12:54:27;102105.09;;;15.75;100.00
25759;BME280;13604;52.496;13.456;2022-10-18T12:56:53;102112.69;;;15.79;100.00
25759;BME280;13604;52.496;13.456;2022-10-18T13:09:37;102110.97;;;16.21;100.00
25759;BME280;13604;52.496;13.456;2022-10-18T13:14:50;102113.69;;;16.19;100.00
25759;BME280;13604;52.496;13.456;2022-10-18T13:17:39;102117.69;;;16.25;100.00
25759;BME280;13604;52.496;13.456;2022-10-18T13:20:20;102122.50;;;16.18;100.00
25759;BME280;13604;52.496;13.456;2022-10-18T13:25:28;102124.03;;;16.08;100.00
25759;BME280;13604;52.496;13.456;2022-10-18T13:30:48;102109.78;;;15.98;100.00
25759;BME280;13604;52.496;13.456;2022-10-18T13:33:33;102122.06;;;16.12;100.00
25759;BME280;13604;52.496;13.456;2022-10-18T13:38:36;102123.34;;;16.33;100.00
25759;BME280;13604;52.496;13.456;2022-10-18T13:41:20;102111.97;;;16.59;100.00
25759;BME280;13604;52.496;13.456;2022-10-18T13:46:18;102111.22;;;16.71;100.00
25759;BME280;13604;52.496;13.456;2022-10-18T13:48:50;102114.84;;;16.83;100.00
25759;BME280;13604;52.496;13.456;2022-10-18T13:51:43;102110.78;;;17.04;100.00
25759;BME280;13604;52.496;13.456;2022-10-18T13:54:47;102117.69;;;18.08;100.00
25759;BME280;13604;52.496;13.456;2022-10-18T13:57:29;102113.72;;;19.90;100.00
25759;BME280;13604;52.496;13.456;2022-10-18T14:03:27;102112.28;;;20.20;100.00
25759;BME280;13604;52.496;13.456;2022-10-18T14:06:06;102117.69;;;19.51;100.00
25759;BME280;13604;52.496;13.456;2022-10-18T14:08:56;102125.69;;;18.80;100.00
25759;BME280;13604;52.496;13.456;2022-10-18T14:11:29;102141.16;;;18.37;100.00